Time;durP1;ratioP1;P1;durP2;ratioP2;P2;SDS_P1;SDS_P2;PMS_P1;PMS_P2;Temp;Humidity;BMP_temperature;BMP_pressure;BME280_temperature;BME280_humidity;BME280_pressure;Samples;Min_cycle;Max_cycle;Signal;HPM_P1;HPM_P2
2021/11/10 00:02:03;;;;;;;;;63.00;49.00;;;;;8.50;60.33;102185.19;6210640;22;45600;-86
2021/11/10 00:04:28;;;;;;;;;63.00;51.25;;;;;8.52;60.11;102196.59;6211915;22;46149;-88
2021/11/10 00:06:54;;;;;;;;;59.25;46.25;;;;;8.50;60.36;102195.69;6184649;22;45341;-86
2021/11/10 00:09:19;;;;;;;;;56.75;46.00;;;;;8.38;60.37;102187.44;6211530;22;45303;-85
2021/11/10 00:11:45;;;;;;;;;56.75;46.50;;;;;8.36;60.55;102186.47;6211065;22;45583;-87
2021/11/10 00:14:11;;;;;;;;;55.75;45.00;;;;;8.46;60.48;102193.81;6183746;22;46662;-86
2021/11/10 00:16:37;;;;;;;;;56.00;47.50;;;;;8.39;60.46;102178.72;6184177;22;45543;-86
2021/11/10 00:19:03;;;;;;;;;50.50;42.50;;;;;8.35;60.58;102166.34;6211584;22;45490;-86
2021/11/10 00:21:29;;;;;;;;;52.00;43.25;;;;;8.25;60.57;102159.94;6185619;22;45804;-88
2021/11/10 00:23:56;;;;;;;;;52.75;42.25;;;;;8.18;60.94;102155.38;6184724;22;47090;-86
2021/11/10 00:26:22;;;;;;;;;52.00;42.75;;;;;8.18;60.74;102158.88;6186825;22;45397;-86
2021/11/10 00:28:48;;;;;;;;;52.75;42.00;;;;;8.33;60.91;102179.41;6184858;22;45748;-87
2021/11/10 00:31:15;;;;;;;;;53.75;43.25;;;;;8.31;60.68;102182.84;6185786;22;45839;-83
2021/11/10 00:33:41;;;;;;;;;56.50;46.00;;;;;8.16;60.95;102152.69;6212096;22;45850;-84
2021/11/10 00:36:08;;;;;;;;;58.00;46.00;;;;;8.24;60.98;102159.91;6185622;22;45691;-85
2021/11/10 00:38:34;;;;;;;;;56.75;45.25;;;;;8.11;60.96;102132.44;6183640;22;45448;-87
2021/11/10 00:40:59;;;;;;;;;55.00;46.00;;;;;8.09;60.92;102134.13;6183627;22;45415;-85
2021/11/10 00:43:25;;;;;;;;;56.50;48.00;;;;;8.07;60.88;102144.59;6182974;22;47867;-83
2021/11/10 00:45:50;;;;;;;;;57.50;46.50;;;;;8.03;60.65;102144.44;6210303;22;45551;-86
2021/11/10 00:48:17;;;;;;;;;60.25;48.75;;;;;8.03;61.26;102153.19;6212551;22;45713;-86
2021/11/10 00:50:42;;;;;;;;;60.25;49.25;;;;;7.87;61.32;102136.13;6235476;22;45762;-87
2021/11/10 00:53:08;;;;;;;;;59.25;48.75;;;;;7.91;61.46;102138.00;6183629;22;47486;-87
2021/11/10 00:55:36;;;;;;;;;58.25;49.50;;;;;8.04;61.33;102161.94;6228096;22;45205;-88
2021/11/10 00:58:12;;;;;;;;;57.00;46.00;;;;;8.03;61.19;102166.31;6227500;22;45431;-86
2021/11/10 01:00:48;;;;;;;;;56.00;45.25;;;;;7.84;61.37;102132.53;6197030;22;45367;-87
2021/11/10 01:03:27;;;;;;;;;;;;;;;;;;;;;
2021/11/10 01:06:01;;;;;;;;;52.25;43.75;;;;;7.97;60.98;102160.00;6218078;22;73881;-86
2021/11/10 01:08:32;;;;;;;;;57.75;46.00;;;;;7.73;61.01;102116.47;6218765;22;45308;-87
2021/11/10 01:11:03;;;;;;;;;54.75;45.00;;;;;7.81;61.02;102141.19;6220124;22;45471;-88
2021/11/10 01:13:38;;;;;;;;;65.50;52.00;;;;;7.82;61.18;102128.97;6242173;22;47236;-87
2021/11/10 01:16:07;;;;;;;;;64.25;51.50;;;;;7.70;61.22;102101.53;6191419;22;45185;-87
2021/11/10 01:18:35;;;;;;;;;61.25;50.00;;;;;7.78;61.08;102120.13;6191022;22;45222;-87
2021/11/10 01:21:11;;;;;;;;;;;;;;;;;;;;;
2021/11/10 01:23:39;;;;;;;;;63.25;51.75;;;;;7.71;61.72;102113.78;6217110;22;76427;-87
2021/11/10 01:26:07;;;;;;;;;58.00;48.25;;;;;7.68;61.59;102118.94;6191450;22;45215;-86
2021/11/10 01:28:44;;;;;;;;;64.75;53.25;;;;;7.44;61.86;102090.25;6191264;22;45345;-87
2021/11/10 01:31:30;;;;;;;;;;;;;;;;;;;;;
2021/11/10 01:34:08;;;;;;;;;;;;;;;;;;;;;
2021/11/10 01:36:43;;;;;;;;;67.75;54.75;;;;;7.60;62.43;102130.94;6216893;22;73271;-86
2021/11/10 01:39:11;;;;;;;;;67.25;54.00;;;;;7.41;62.34;102097.16;6191465;22;45223;-86
2021/11/10 01:41:47;;;;;;;;;68.25;54.50;;;;;7.55;62.55;102114.16;6217669;22;45487;-86
2021/11/10 01:44:28;;;;;;;;;70.00;53.75;;;;;7.60;62.46;102116.94;6190881;22;47882;-86
2021/11/10 01:47:01;;;;;;;;;65.50;53.50;;;;;7.55;62.68;102108.03;6240913;22;45198;-86
2021/11/10 01:49:27;;;;;;;;;66.50;53.00;;;;;7.48;62.60;102097.38;6191599;22;45255;-85
2021/11/10 01:52:10;;;;;;;;;64.75;53.50;;;;;7.59;62.47;102126.53;6190166;22;45192;-86
2021/11/10 01:54:50;;;;;;;;;65.50;50.00;;;;;7.43;62.08;102103.28;6191423;22;45316;-87
2021/11/10 01:57:26;;;;;;;;;67.00;54.25;;;;;7.48;62.12;102107.88;6178819;22;45432;-87
2021/11/10 02:00:11;;;;;;;;;66.75;54.00;;;;;7.55;62.27;102115.91;6219644;22;45364;-87
2021/11/10 02:02:40;;;;;;;;;68.00;52.75;;;;;7.33;62.05;102091.66;6192578;22;45793;-86
2021/11/10 02:05:14;;;;;;;;;66.00;52.75;;;;;7.28;62.31;102096.75;6245085;22;47174;-86
2021/11/10 02:07:43;;;;;;;;;55.75;45.00;;;;;7.18;62.58;102099.91;6206277;22;45737;-86
2021/11/10 02:10:11;;;;;;;;;61.75;50.50;;;;;7.31;62.59;102126.50;6208309;22;44694;-88
2021/11/10 02:12:38;;;;;;;;;56.25;46.75;;;;;7.16;62.62;102100.69;6230565;22;45268;-87
2021/11/10 02:15:06;;;;;;;;;56.50;45.25;;;;;7.06;62.95;102094.28;6192988;22;47663;-88
2021/11/10 02:17:32;;;;;;;;;56.00;44.75;;;;;7.21;63.01;102135.78;6192172;22;45181;-86
2021/11/10 02:20:01;;;;;;;;;51.75;43.25;;;;;7.02;63.02;102103.75;6220546;22;45244;-87
2021/11/10 02:22:26;;;;;;;;;51.25;42.00;;;;;7.02;63.20;102105.50;6191790;22;45662;-87
2021/11/10 02:25:03;;;;;;;;;53.50;42.00;;;;;7.13;63.20;102108.47;6192977;22;46865;-87
2021/11/10 02:27:37;;;;;;;;;55.25;43.75;;;;;7.11;63.08;102100.56;6192470;22;45296;-88
2021/11/10 02:30:15;;;;;;;;;54.00;45.00;;;;;7.16;63.15;102112.06;6192768;22;45328;-87
2021/11/10 02:32:49;;;;;;;;;56.25;44.75;;;;;7.15;63.25;102096.31;6243580;22;45181;-87
2021/11/10 02:35:24;;;;;;;;;57.25;47.25;;;;;7.06;62.91;102081.22;6220533;22;46301;-88
2021/11/10 02:38:00;;;;;;;;;61.50;47.25;;;;;7.08;62.74;102087.34;6220241;22;45403;-87
2021/11/10 02:40:52;;;;;;;;;57.00;44.75;;;;;6.99;62.97;102066.13;6193058;22;45407;-87
2021/11/10 02:43:14;;;;;;;;;54.00;42.75;;;;;7.04;63.19;102077.63;6216700;22;45101;-88
2021/11/10 02:45:40;;;;;;;;;59.00;48.50;;;;;6.94;63.34;102063.34;6192466;22;47123;-86
2021/11/10 02:48:16;;;;;;;;;;;;;;;;;;;;;
2021/11/10 02:50:44;;;;;;;;;56.00;43.00;;;;;6.87;63.23;102056.16;6219371;22;68719;-87
2021/11/10 02:53:11;;;;;;;;;53.75;43.00;;;;;6.97;63.08;102070.41;6193643;22;45446;-87
2021/11/10 02:55:53;;;;;;;;;51.25;42.75;;;;;6.91;63.44;102068.50;6192356;22;47351;-89
2021/11/10 02:58:28;;;;;;;;;57.00;44.75;;;;;6.91;63.46;102081.59;6181588;22;45249;-87
2021/11/10 03:00:54;;;;;;;;;55.25;42.75;;;;;6.98;63.46;102088.81;6192516;22;45309;-88
2021/11/10 03:03:24;;;;;;;;;48.50;42.25;;;;;6.83;63.70;102054.28;6244553;22;45575;-86
2021/11/10 03:05:52;;;;;;;;;62.00;46.50;;;;;6.83;63.81;102054.28;6242919;22;47269;-87
2021/11/10 03:08:19;;;;;;;;;53.50;43.25;;;;;6.98;63.88;102074.84;6192584;22;45406;-86
2021/11/10 03:10:51;;;;;;;;;61.50;48.25;;;;;6.93;63.76;102064.19;6192379;22;45439;-87
2021/11/10 03:13:22;;;;;;;;;54.75;43.00;;;;;6.76;63.74;102033.97;6192394;22;45360;-86
2021/11/10 03:15:55;;;;;;;;;54.75;47.00;;;;;6.84;63.70;102043.88;6191324;22;47139;-87
2021/11/10 03:18:21;;;;;;;;;56.50;46.75;;;;;6.75;63.54;102021.72;6219243;22;45174;-87
2021/11/10 03:21:06;;;;;;;;;;;;;;;;;;;;;
2021/11/10 03:23:37;;;;;;;;;63.25;50.00;;;;;6.93;63.48;102055.47;6219428;22;72869;-87
2021/11/10 03:26:02;;;;;;;;;58.50;49.50;;;;;6.75;63.36;102043.53;6191824;22;45457;-87
2021/11/10 03:28:37;;;;;;;;;62.50;49.00;;;;;6.74;63.63;102052.25;6244815;22;45320;-86
2021/11/10 03:31:13;;;;;;;;;;;;;;;;;;;;;
2021/11/10 03:33:39;;;;;;;;;58.50;49.50;;;;;6.83;63.91;102073.47;6220007;22;71750;-87
2021/11/10 03:36:17;;;;;;;;;;;;;;;;;;;;;
2021/11/10 03:38:45;;;;;;;;;58.75;48.50;;;;;6.68;64.04;102038.06;6220137;22;73045;-88
2021/11/10 03:41:10;;;;;;;;;55.75;46.50;;;;;6.80;64.06;102064.63;6194624;22;45488;-87
2021/11/10 03:43:36;;;;;;;;;55.25;45.50;;;;;6.68;63.89;102062.47;6203414;22;44766;-87
2021/11/10 03:46:06;;;;;;;;;55.50;46.50;;;;;6.78;64.00;102079.41;6228446;22;45336;-87
2021/11/10 03:48:53;;;;;;;;;;;;;;;;;;;;;
2021/11/10 03:51:22;;;;;;;;;57.75;47.25;;;;;6.67;64.00;102052.88;6219262;22;68916;-87
2021/11/10 03:53:51;;;;;;;;;57.75;47.00;;;;;6.74;63.65;102075.78;6191693;22;45509;-86
2021/11/10 03:56:22;;;;;;;;;55.00;47.00;;;;;6.71;63.68;102074.78;6193830;22;46980;-87
2021/11/10 03:58:48;;;;;;;;;59.75;47.75;;;;;6.51;63.66;102047.97;6191914;22;45427;-87
2021/11/10 04:02:02;;;;;;;;;55.25;45.25;;;;;6.67;63.63;102081.66;6193490;22;45352;-85
2021/11/10 04:04:28;;;;;;;;;58.25;49.25;;;;;6.65;63.61;102096.41;6151421;22;45495;-86
2021/11/10 04:07:03;;;;;;;;;;;;;;;;;;;;;
2021/11/10 04:09:37;;;;;;;;;56.00;45.25;;;;;6.54;63.59;102093.41;6217815;22;73229;-86
2021/11/10 04:12:03;;;;;;;;;55.00;43.75;;;;;6.60;63.55;102121.53;6192907;22;45328;-86
2021/11/10 04:14:28;;;;;;;;;56.25;45.00;;;;;6.55;64.18;102131.84;6192489;22;45436;-86
2021/11/10 04:19:47;;;;;;;;;63.00;49.25;;;;;6.59;63.91;102153.75;6219830;22;45158;-85
2021/11/10 04:22:22;;;;;;;;;58.75;45.75;;;;;6.39;64.27;102117.34;6221200;22;45353;-86
2021/11/10 04:24:48;;;;;;;;;62.00;48.25;;;;;6.45;64.00;102129.75;6195237;22;45424;-85
2021/11/10 04:27:14;;;;;;;;;58.00;47.50;;;;;6.42;64.20;102124.41;6222648;22;45300;-85
2021/11/10 04:29:42;;;;;;;;;58.75;47.50;;;;;6.44;64.01;102124.44;6243206;22;45292;-85
2021/11/10 04:32:08;;;;;;;;;59.50;48.50;;;;;6.57;63.97;102145.84;6192986;22;45136;-85
2021/11/10 04:34:48;;;;;;;;;;;;;;;;;;;;;
2021/11/10 04:37:17;;;;;;;;;59.50;49.00;;;;;6.56;63.91;102135.34;6222996;22;74095;-85
2021/11/10 04:39:53;;;;;;;;;;;;;;;;;;;;;
2021/11/10 04:42:31;;;;;;;;;;;;;;;;;;;;;
2021/11/10 04:45:24;;;;;;;;;62.50;50.50;;;;;6.35;64.40;102089.28;6225837;22;73192;-86
2021/11/10 04:48:02;;;;;;;;;;;;;;;;;;;;;
2021/11/10 04:50:29;;;;;;;;;62.75;51.00;;;;;6.43;64.80;102112.22;6225210;22;72274;-85
2021/11/10 04:52:56;;;;;;;;;60.25;51.25;;;;;6.43;64.85;102115.72;6199787;22;45430;-85
2021/11/10 04:55:24;;;;;;;;;59.25;48.25;;;;;6.27;65.05;102088.13;6200501;22;45230;-85
2021/11/10 04:57:50;;;;;;;;;64.25;51.00;;;;;6.33;65.17;102103.13;6197053;22;48113;-86
2021/11/10 05:00:26;;;;;;;;;;;;;;;;;;;;;
2021/11/10 05:02:54;;;;;;;;;62.00;49.50;;;;;6.25;64.90;102104.59;6220405;22;68775;-86
2021/11/10 05:05:23;;;;;;;;;63.50;49.50;;;;;6.24;64.85;102119.41;6195004;22;45374;-85
2021/11/10 05:07:51;;;;;;;;;47.00;40.75;;;;;6.24;65.45;102119.41;6192231;22;46626;-86
2021/11/10 05:10:35;;;;;;;;;;;;;;;;;;;;;
2021/11/10 05:13:01;;;;;;;;;62.00;50.25;;;;;6.34;65.02;102113.66;6219052;22;69105;-86
2021/11/10 05:15:30;;;;;;;;;61.25;48.50;;;;;6.27;65.01;102100.31;6219597;22;45478;-85
2021/11/10 05:17:55;;;;;;;;;63.00;47.50;;;;;6.33;65.32;102103.13;6192210;22;47870;-86
2021/11/10 05:20:23;;;;;;;;;63.50;52.75;;;;;6.11;65.37;102051.81;6194650;22;45623;-85
2021/11/10 05:22:49;;;;;;;;;62.75;52.75;;;;;6.10;65.55;102065.72;6191896;22;45255;-86
2021/11/10 05:25:14;;;;;;;;;62.00;50.50;;;;;6.11;65.28;102070.09;6192231;22;45266;-86
2021/11/10 05:27:40;;;;;;;;;61.00;50.75;;;;;6.26;65.63;102093.31;6218623;22;45246;-85
2021/11/10 05:30:08;;;;;;;;;58.75;48.00;;;;;6.25;65.47;102095.00;6191790;22;45617;-85
2021/11/10 05:32:34;;;;;;;;;60.00;49.75;;;;;6.23;65.67;102095.78;6191463;22;45395;-86
2021/11/10 05:34:59;;;;;;;;;62.75;51.75;;;;;6.12;65.53;102085.88;6191760;22;45449;-86
2021/11/10 05:37:37;;;;;;;;;;;;;;;;;;;;;
2021/11/10 05:40:08;;;;;;;;;65.25;52.75;;;;;6.07;65.75;102066.50;6218005;22;71773;-85
2021/11/10 05:42:36;;;;;;;;;68.25;52.00;;;;;6.26;65.72;102091.59;6218965;22;45395;-85
2021/11/10 05:45:06;;;;;;;;;64.75;50.25;;;;;6.19;65.61;102073.88;6192762;22;45406;-85
2021/11/10 05:47:31;;;;;;;;;61.00;49.25;;;;;6.08;65.64;102051.69;6191631;22;46144;-87
2021/11/10 05:50:06;;;;;;;;;59.75;48.00;;;;;6.16;65.22;102063.31;6219971;22;45349;-87
2021/11/10 05:52:35;;;;;;;;;57.75;47.25;;;;;6.22;65.21;102075.72;6219485;22;45193;-87
2021/11/10 05:55:10;;;;;;;;;58.25;49.00;;;;;6.02;65.08;102044.53;6192876;22;45245;-87
2021/11/10 05:57:38;;;;;;;;;67.00;49.50;;;;;5.99;65.04;102038.28;6241927;22;48012;-87
2021/11/10 06:00:08;;;;;;;;;63.75;49.25;;;;;5.90;65.07;102031.84;6219678;22;45268;-86
2021/11/10 06:02:34;;;;;;;;;66.00;51.25;;;;;5.97;64.87;102057.44;6191798;22;45369;-87
2021/11/10 06:05:00;;;;;;;;;56.25;46.00;;;;;5.93;65.04;102076.47;6219600;22;45253;-86
2021/11/10 06:07:49;;;;;;;;;;;;;;;;;;;;;
2021/11/10 06:10:21;;;;;;;;;61.50;49.50;;;;;5.81;64.83;102077.69;6218719;22;72923;-87
2021/11/10 06:12:52;;;;;;;;;59.75;49.75;;;;;5.67;64.76;102065.00;6192460;22;45245;-86
2021/11/10 06:15:17;;;;;;;;;61.00;50.25;;;;;5.70;64.90;102082.50;6190159;22;45395;-86
2021/11/10 06:17:44;;;;;;;;;60.50;50.25;;;;;5.72;65.05;102099.13;6218862;22;46789;-87
2021/11/10 06:20:10;;;;;;;;;64.75;50.25;;;;;5.73;64.52;102124.44;6191402;22;45289;-87
2021/11/10 06:22:36;;;;;;;;;59.50;49.00;;;;;5.62;64.54;102113.56;6219685;22;45208;-87
2021/11/10 06:25:04;;;;;;;;;59.00;48.00;;;;;5.49;64.54;102093.03;6192014;22;45200;-85
2021/11/10 06:27:30;;;;;;;;;58.25;47.00;;;;;5.66;64.80;102130.25;6219442;22;46382;-87
2021/11/10 06:29:56;;;;;;;;;59.75;47.25;;;;;5.65;64.64;102144.16;6191421;22;45607;-84
2021/11/10 06:32:22;;;;;;;;;57.75;48.00;;;;;5.63;65.07;102146.69;6219694;22;45332;-84
2021/11/10 06:34:53;;;;;;;;;50.50;43.25;;;;;5.50;64.54;102132.25;6221005;22;45494;-84
2021/11/10 06:37:21;;;;;;;;;50.00;45.00;;;;;5.62;64.80;102150.16;6224146;22;45258;-85
2021/11/10 06:39:49;;;;;;;;;63.00;50.25;;;;;5.48;64.84;102133.00;6224551;22;45249;-85
2021/11/10 06:42:17;;;;;;;;;58.25;49.00;;;;;5.62;64.77;102167.53;6192221;22;45420;-85
2021/11/10 06:44:43;;;;;;;;;59.50;48.25;;;;;5.58;64.76;102155.19;6190698;22;45184;-85
2021/11/10 06:47:08;;;;;;;;;65.50;51.00;;;;;5.53;64.81;102144.53;6191698;22;46938;-84
2021/11/10 06:49:34;;;;;;;;;59.50;50.25;;;;;5.55;64.91;102152.44;6190818;22;45453;-85
2021/11/10 06:51:59;;;;;;;;;57.25;46.50;;;;;5.43;65.15;102140.69;6191397;22;45322;-85
2021/11/10 06:54:26;;;;;;;;;60.75;49.75;;;;;5.42;65.09;102157.16;6220700;22;45154;-85
2021/11/10 06:57:25;;;;;;;;;;;;;;;;;;;;;
2021/11/10 06:59:53;;;;;;;;;58.00;47.50;;;;;5.53;65.09;102197.69;6217545;22;72670;-87
2021/11/10 07:02:29;;;;;;;;;;;;;;;;;;;;;
2021/11/10 07:04:54;;;;;;;;;54.00;45.50;;;;;5.56;65.10;102196.94;6218005;22;72873;-85
2021/11/10 07:07:23;;;;;;;;;61.25;49.50;;;;;5.44;64.72;102183.38;6192387;22;47762;-88
2021/11/10 07:10:03;;;;;;;;;62.75;51.25;;;;;5.50;65.02;102204.50;6218602;22;45371;-87
2021/11/10 07:12:31;;;;;;;;;58.75;45.75;;;;;5.46;65.33;102198.28;6219915;22;45308;-85
2021/11/10 07:15:04;;;;;;;;;63.25;48.75;;;;;5.60;65.14;102218.84;6243141;22;45358;-86
2021/11/10 07:17:32;;;;;;;;;62.50;50.50;;;;;5.66;65.28;102214.72;6221041;22;46448;-89
2021/11/10 07:19:57;;;;;;;;;55.25;44.75;;;;;5.47;65.15;102179.16;6193083;22;45914;-89
2021/11/10 07:22:28;;;;;;;;;58.00;47.75;;;;;5.46;65.37;102176.50;6194648;22;45387;-88
2021/11/10 07:24:53;;;;;;;;;59.25;47.25;;;;;5.45;65.29;102173.00;6190558;22;45388;-89
2021/11/10 07:27:19;;;;;;;;;56.25;47.75;;;;;5.58;65.11;102196.97;6192097;22;47489;-90
2021/11/10 07:29:45;;;;;;;;;58.50;46.50;;;;;5.67;65.02;102198.25;6218707;22;45174;-90
2021/11/10 07:32:10;;;;;;;;;63.00;51.50;;;;;5.52;65.58;102175.00;6193015;22;45165;-91
2021/11/10 07:34:36;;;;;;;;;62.25;51.75;;;;;5.54;65.34;102177.69;6192371;22;45518;-89
2021/11/10 07:37:02;;;;;;;;;64.50;52.50;;;;;5.56;65.21;102189.09;6193244;22;47508;-87
2021/11/10 07:39:31;;;;;;;;;65.50;53.00;;;;;5.66;65.40;102203.41;6192358;22;45403;-90
2021/11/10 07:41:57;;;;;;;;;61.00;50.25;;;;;5.75;65.44;102214.22;6195315;22;45526;-90
2021/11/10 07:44:23;;;;;;;;;66.25;52.75;;;;;5.74;65.44;102189.78;6195028;22;45095;-90
2021/11/10 07:46:54;;;;;;;;;66.25;53.50;;;;;5.67;65.68;102163.41;6245366;22;46892;-89
2021/11/10 07:49:34;;;;;;;;;66.50;52.75;;;;;5.61;65.62;102143.13;6192588;22;45873;-89
2021/11/10 07:52:02;;;;;;;;;60.50;50.00;;;;;5.76;65.99;102174.19;6191160;22;45183;-89
2021/11/10 07:54:27;;;;;;;;;63.25;51.50;;;;;5.68;65.65;102150.38;6190610;22;45624;-88
2021/11/10 07:57:00;;;;;;;;;63.00;52.25;;;;;5.70;66.19;102146.09;6192218;22;47135;-90
2021/11/10 07:59:26;;;;;;;;;67.00;53.25;;;;;5.73;65.88;102142.72;6191253;22;45356;-89
2021/11/10 08:01:51;;;;;;;;;62.50;53.00;;;;;5.79;66.09;102160.34;6219113;22;45338;-88
2021/11/10 08:04:17;;;;;;;;;60.00;45.00;;;;;5.83;65.75;102159.66;6191983;22;45363;-87
2021/11/10 08:06:43;;;;;;;;;66.00;53.25;;;;;5.82;66.11;102150.91;6199177;22;46613;-89
2021/11/10 08:09:08;;;;;;;;;66.00;55.00;;;;;6.01;66.20;102175.16;6201432;22;45305;-90
2021/11/10 08:11:34;;;;;;;;;70.75;53.25;;;;;5.86;65.84;102146.69;6189223;23;45393;-87
2021/11/10 08:14:08;;;;;;;;;64.50;53.00;;;;;5.91;65.88;102161.72;6193017;22;45508;-88
2021/11/10 08:16:49;;;;;;;;;63.00;50.25;;;;;5.90;65.84;102148.59;6232176;22;45436;-87
2021/11/10 08:19:30;;;;;;;;;;;;;;;;;;;;;
2021/11/10 08:29:51;;;;;;;;;71.75;55.75;;;;;6.11;66.01;102175.56;6145149;23;45470;-89
2021/11/10 08:35:52;;;;;;;;;67.75;52.75;;;;;6.40;65.88;102222.84;6074927;23;45454;-90
2021/11/10 09:17:12;;;;;;;;;;;;;;;;;;;;;
2021/11/10 09:34:15;;;;;;;;;72.25;57.00;;;;;7.50;65.57;102170.78;6021104;23;45384;-88
2021/11/10 11:33:15;;;;;;;;;49.25;39.00;;;;;13.69;54.05;102114.94;6281704;22;45414;-90
2021/11/10 11:47:13;;;;;;;;;37.50;33.25;;;;;14.46;50.83;102094.91;5984807;23;45522;-89
2021/11/10 11:50:02;;;;;;;;;37.00;34.00;;;;;14.67;50.88;102091.41;5991965;23;45679;-89
2021/11/10 11:52:45;;;;;;;;;36.75;34.00;;;;;14.91;50.47;102093.19;6187826;22;47089;-87
2021/11/10 13:28:12;;;;;;;;;22.75;21.25;;;;;23.17;31.37;102033.47;6118495;23;45741;-87
2021/11/10 13:57:51;;;;;;;;;37.50;34.00;;;;;23.69;30.40;102022.63;6315684;22;45558;-87
2021/11/10 14:00:25;;;;;;;;;35.75;31.00;;;;;23.50;30.59;102012.56;6222265;22;45821;-89
2021/11/10 14:10:44;;;;;;;;;34.75;30.00;;;;;23.26;30.49;102030.47;6153507;23;45777;-90
2021/11/10 14:14:24;;;;;;;;;;;;;;;;;;;;;
2021/11/10 14:23:43;;;;;;;;;28.00;27.50;;;;;23.21;30.23;102020.81;5926353;24;45512;-86
2021/11/10 15:57:57;;;;;;;;;59.75;47.50;;;;;14.94;41.85;102033.97;6220723;22;45529;-96
2021/11/10 16:08:20;;;;;;;;;56.25;46.00;;;;;14.27;43.52;102051.59;5970889;23;45401;-86
2021/11/10 16:11:15;;;;;;;;;55.00;44.50;;;;;14.06;44.13;102047.13;5937737;23;45423;-88
2021/11/10 16:14:39;;;;;;;;;54.75;45.25;;;;;14.00;44.44;102062.97;5952004;23;46037;-88
2021/11/10 16:17:53;;;;;;;;;;;;;;;;;;;;;
2021/11/10 16:27:33;;;;;;;;;;;;;;;;;;;;;
2021/11/10 16:30:19;;;;;;;;;;;;;;;;;;;;;
2021/11/10 16:36:41;;;;;;;;;;;;;;;;;;;;;
2021/11/10 16:42:53;;;;;;;;;;;;;;;;;;;;;
2021/11/10 17:38:30;;;;;;;;;60.00;42.75;;;;;11.63;50.40;102088.25;6339872;22;45717;-90
2021/11/10 17:51:43;;;;;;;;;;;;;;;;;;;;;
2021/11/10 17:54:47;;;;;;;;;55.75;44.25;;;;;11.37;51.47;102108.94;6158122;23;72017;-94
2021/11/10 17:58:07;;;;;;;;;;;;;;;;;;;;;
2021/11/10 18:14:59;;;;;;;;;54.25;44.00;;;;;11.06;52.49;102099.66;6343686;22;45459;-89
2021/11/10 18:17:25;;;;;;;;;60.00;47.00;;;;;11.15;52.63;102129.72;6320011;22;45458;-89
2021/11/10 18:20:06;;;;;;;;;;;;;;;;;;;;;
2021/11/10 18:23:22;;;;;;;;;;;;;;;;;;;;;
2021/11/10 18:26:22;;;;;;;;;;;;;;;;;;;;;
2021/11/10 18:29:28;;;;;;;;;;;;;;;;;;;;;
2021/11/10 18:36:50;;;;;;;;;;;;;;;;;;;;;
2021/11/10 18:44:07;;;;;;;;;66.50;53.75;;;;;10.94;53.43;102124.09;6156395;22;45976;-94
2021/11/10 18:49:53;;;;;;;;;64.00;49.00;;;;;10.70;53.99;102103.47;6323871;22;45447;-94
2021/11/10 18:52:29;;;;;;;;;;;;;;;;;;;;;
2021/11/10 18:55:10;;;;;;;;;58.50;47.25;;;;;10.70;54.12;102121.91;6347254;22;72025;-92
2021/11/10 18:58:37;;;;;;;;;67.00;51.00;;;;;10.63;54.16;102114.75;6320954;22;47611;-89
2021/11/10 19:01:38;;;;;;;;;;;;;;;;;;;;;
2021/11/10 19:11:13;;;;;;;;;65.50;52.50;;;;;10.53;54.44;102130.38;6213295;22;46028;-90
2021/11/10 19:27:10;;;;;;;;;;;;;;;;;;;;;
2021/11/10 19:33:38;;;;;;;;;68.50;54.50;;;;;10.31;54.89;102136.06;6216780;22;45403;-90
2021/11/10 22:43:51;;;;;;;;;104.67;99.67;;;;;8.38;60.51;102154.19;6294343;22;47018;-84
2021/11/10 22:46:50;;;;;;;;;;;;;;;;;;;;;
2021/11/10 22:49:16;;;;;;;;;105.33;95.33;;;;;8.36;60.66;102158.50;6330222;22;71361;-85
